Time;durP1;ratioP1;P1;durP2;ratioP2;P2;SDS_P1;SDS_P2;PMS_P1;PMS_P2;Temp;Humidity;BMP_temperature;BMP_pressure;BME280_temperature;BME280_humidity;BME280_pressure;Samples;Min_cycle;Max_cycle;Signal;HPM_P1;HPM_P2
2022/10/28 00:00:55;;;;;;;8.43;3.40;;;10.10;99.90;;;;;;5035623;28;20021;-82
2022/10/28 00:03:20;;;;;;;16.63;3.88;;;10.10;99.90;;;;;;5035758;28;20101;-82
2022/10/28 00:05:46;;;;;;;11.50;3.72;;;10.00;99.90;;;;;;5035297;28;20104;-82
2022/10/28 00:08:12;;;;;;;14.77;5.05;;;10.00;99.90;;;;;;5035800;28;20100;-82
2022/10/28 00:10:37;;;;;;;7.45;3.63;;;10.00;99.90;;;;;;5035318;28;20036;-82
2022/10/28 00:13:03;;;;;;;13.50;3.72;;;10.00;99.90;;;;;;5035163;28;20068;-82
2022/10/28 00:15:28;;;;;;;8.23;3.15;;;9.90;99.90;;;;;;5035514;28;20056;-82
2022/10/28 00:17:54;;;;;;;7.22;3.70;;;9.90;99.90;;;;;;5035296;28;20028;-82
2022/10/28 00:20:20;;;;;;;7.85;3.47;;;9.90;99.90;;;;;;5035227;28;20048;-82
2022/10/28 00:22:45;;;;;;;9.18;3.15;;;9.90;99.90;;;;;;5035240;28;20028;-82
2022/10/28 00:25:11;;;;;;;5.07;3.00;;;9.90;99.90;;;;;;5034979;28;20112;-82
2022/10/28 00:27:36;;;;;;;8.40;3.20;;;9.80;99.90;;;;;;5035047;28;20375;-82
2022/10/28 00:30:03;;;;;;;8.75;3.22;;;9.80;99.90;;;;;;5034849;28;20037;-82
2022/10/28 00:32:29;;;;;;;8.15;3.65;;;9.80;99.90;;;;;;5033974;28;20026;-82
2022/10/28 00:34:55;;;;;;;9.75;3.47;;;9.80;99.90;;;;;;5034927;28;20029;-82
2022/10/28 00:37:20;;;;;;;9.10;2.93;;;9.80;99.90;;;;;;5035345;28;20095;-82
2022/10/28 00:39:46;;;;;;;11.15;3.30;;;9.80;99.90;;;;;;5034696;28;20088;-82
2022/10/28 00:42:16;;;;;;;7.97;2.88;;;9.80;99.90;;;;;;5035025;28;20048;-82
2022/10/28 00:44:52;;;;;;;7.90;3.40;;;9.80;99.90;;;;;;5034766;28;20421;-82
2022/10/28 00:47:44;;;;;;;12.20;3.95;;;9.70;99.90;;;;;;5034616;28;20038;-82
2022/10/28 00:50:09;;;;;;;9.10;3.22;;;9.80;99.90;;;;;;5034647;28;20017;-82
2022/10/28 00:52:35;;;;;;;5.43;3.20;;;9.80;99.90;;;;;;5034699;28;20470;-82
2022/10/28 00:55:02;;;;;;;6.57;3.37;;;9.80;99.90;;;;;;5034356;28;20040;-82
2022/10/28 00:57:32;;;;;;;6.90;2.83;;;9.80;99.90;;;;;;5034516;28;20091;-82
2022/10/28 01:00:00;;;;;;;11.65;3.80;;;9.80;99.90;;;;;;5034771;28;20371;-82
2022/10/28 01:02:26;;;;;;;9.30;3.40;;;9.70;99.90;;;;;;5032897;28;20442;-82
2022/10/28 01:04:52;;;;;;;7.87;3.00;;;9.70;99.90;;;;;;5034430;28;20076;-82
2022/10/28 01:07:18;;;;;;;7.72;2.92;;;9.70;99.90;;;;;;5034410;28;20049;-82
2022/10/28 01:09:44;;;;;;;6.10;3.15;;;9.70;99.90;;;;;;5034583;28;20366;-82
2022/10/28 01:12:25;;;;;;;5.67;2.73;;;9.70;99.90;;;;;;5034325;28;20030;-82
2022/10/28 01:15:06;;;;;;;11.53;3.13;;;9.70;99.90;;;;;;5034666;28;20061;-82
2022/10/28 01:17:51;;;;;;;6.40;2.78;;;9.60;99.90;;;;;;5034090;28;20021;-82
2022/10/28 01:20:42;;;;;;;5.63;3.10;;;9.60;99.90;;;;;;5034310;28;20096;-82
2022/10/28 01:23:07;;;;;;;7.93;3.17;;;9.60;99.90;;;;;;5034130;28;20048;-82
2022/10/28 01:25:57;;;;;;;12.87;3.50;;;9.60;99.90;;;;;;5033951;28;20030;-82
2022/10/28 01:29:00;;;;;;;13.97;3.30;;;9.60;99.90;;;;;;5033732;28;20026;-82
2022/10/28 01:31:40;;;;;;;9.43;3.50;;;9.50;99.90;;;;;;5033802;28;20026;-81
2022/10/28 01:34:32;;;;;;;7.03;2.80;;;9.50;99.90;;;;;;5033840;28;20018;-82
2022/10/28 01:37:13;;;;;;;10.23;3.17;;;9.50;99.90;;;;;;5033743;28;20454;-81
2022/10/28 01:39:53;;;;;;;6.70;2.90;;;9.40;99.90;;;;;;5032312;28;20052;-82
2022/10/28 01:42:33;;;;;;;4.87;2.90;;;9.40;99.90;;;;;;5033509;28;20442;-82
2022/10/28 01:45:12;;;;;;;6.83;2.70;;;9.40;99.90;;;;;;5033881;28;20056;-82
2022/10/28 01:47:55;;;;;;;5.23;2.73;;;9.30;99.90;;;;;;5033725;28;20025;-81
2022/10/28 01:50:27;;;;;;;6.30;2.70;;;9.30;99.90;;;;;;5033060;28;20060;-82
2022/10/28 01:52:55;;;;;;;8.63;2.60;;;9.30;99.90;;;;;;5033282;28;20021;-82
2022/10/28 01:55:26;;;;;;;11.70;2.93;;;9.30;99.90;;;;;;5031896;28;20447;-82
2022/10/28 01:57:56;;;;;;;5.90;2.93;;;9.30;99.90;;;;;;5033534;28;20104;-82
2022/10/28 02:00:21;;;;;;;13.63;3.87;;;9.20;99.90;;;;;;5033482;28;20353;-82
2022/10/28 02:02:48;;;;;;;6.33;3.20;;;9.20;99.90;;;;;;5033215;28;20083;-82
2022/10/28 02:05:43;;;;;;;6.57;3.13;;;9.20;99.90;;;;;;5033350;28;20026;-82
2022/10/28 02:08:39;;;;;;;9.30;3.67;;;9.20;99.90;;;;;;5033167;28;20021;-82
2022/10/28 02:11:33;;;;;;;6.60;3.30;;;9.20;99.90;;;;;;5033338;28;20083;-82
2022/10/28 02:14:36;;;;;;;6.77;3.10;;;9.20;99.90;;;;;;5033269;28;20485;-82
2022/10/28 02:17:13;;;;;;;4.57;2.60;;;9.10;99.90;;;;;;5033008;28;20033;-81
2022/10/28 02:20:01;;;;;;;6.17;2.63;;;9.10;99.90;;;;;;5033285;28;20029;-82
2022/10/28 02:22:42;;;;;;;6.80;3.20;;;9.20;99.90;;;;;;5033392;28;20087;-81
2022/10/28 02:25:29;;;;;;;5.73;3.33;;;9.10;99.90;;;;;;5033157;28;20022;-82
2022/10/28 02:28:08;;;;;;;6.83;2.93;;;9.10;99.90;;;;;;5033401;28;20025;-82
2022/10/28 02:30:48;;;;;;;9.13;2.63;;;9.10;99.90;;;;;;5033345;28;20457;-81
2022/10/28 02:33:20;;;;;;;7.93;2.90;;;9.00;99.90;;;;;;5032801;28;20374;-81
2022/10/28 02:35:56;;;;;;;6.60;2.93;;;9.00;99.90;;;;;;5032994;28;20039;-82
2022/10/28 02:38:31;;;;;;;6.67;3.03;;;9.00;99.90;;;;;;5033079;28;20108;-82
2022/10/28 02:41:01;;;;;;;5.63;2.80;;;9.10;99.90;;;;;;5033119;28;20115;-82
2022/10/28 02:43:31;;;;;;;12.07;3.20;;;9.00;99.90;;;;;;5032996;28;20079;-82
2022/10/28 02:45:59;;;;;;;9.47;3.10;;;9.10;99.90;;;;;;5032762;28;20052;-82
2022/10/28 02:48:29;;;;;;;5.00;2.90;;;9.10;99.90;;;;;;5033251;28;20030;-81
2022/10/28 02:51:12;;;;;;;8.37;3.07;;;9.00;99.90;;;;;;5032503;28;20041;-82
2022/10/28 02:54:07;;;;;;;6.33;2.90;;;9.10;99.90;;;;;;5032882;28;20026;-82
2022/10/28 02:56:38;;;;;;;8.10;3.20;;;9.10;99.90;;;;;;5025318;28;20045;-82
2022/10/28 02:59:10;;;;;;;6.67;3.00;;;9.00;99.90;;;;;;5032539;28;20021;-82
2022/10/28 03:01:36;;;;;;;4.93;2.63;;;9.00;99.90;;;;;;5031246;28;20091;-82
2022/10/28 03:04:02;;;;;;;7.30;2.80;;;9.10;99.90;;;;;;5035214;28;20036;-82
2022/10/28 03:06:27;;;;;;;4.17;2.43;;;9.00;99.90;;;;;;5036306;28;20048;-81
2022/10/28 03:08:53;;;;;;;6.50;2.83;;;9.00;99.90;;;;;;5036605;28;20026;-81
2022/10/28 03:11:19;;;;;;;10.47;3.10;;;9.00;99.90;;;;;;5036783;28;20057;-82
2022/10/28 03:13:44;;;;;;;8.20;2.80;;;9.00;99.90;;;;;;5036221;28;20018;-82
2022/10/28 03:16:10;;;;;;;9.10;2.90;;;9.00;99.90;;;;;;5036496;28;20521;-82
2022/10/28 03:18:35;;;;;;;10.10;2.90;;;9.00;99.90;;;;;;5036283;28;20021;-79
2022/10/28 03:21:01;;;;;;;8.87;2.97;;;8.90;99.90;;;;;;5036113;28;20056;-79
2022/10/28 03:23:27;;;;;;;11.40;3.10;;;8.90;99.90;;;;;;5036153;28;20014;-79
2022/10/28 03:25:52;;;;;;;7.83;3.50;;;8.90;99.90;;;;;;5036173;28;20025;-79
2022/10/28 03:28:18;;;;;;;11.37;3.30;;;8.90;99.90;;;;;;5035870;28;20030;-79
2022/10/28 03:30:43;;;;;;;12.60;3.70;;;8.80;99.90;;;;;;5035946;28;20036;-79
2022/10/28 03:33:09;;;;;;;9.27;3.23;;;8.90;99.90;;;;;;5035926;28;20033;-79
2022/10/28 03:35:34;;;;;;;12.00;3.93;;;8.90;99.90;;;;;;5035960;28;20105;-79
2022/10/28 03:38:00;;;;;;;9.53;3.50;;;8.80;99.90;;;;;;5035831;28;20079;-79
2022/10/28 03:40:26;;;;;;;10.80;2.97;;;8.80;99.90;;;;;;5035758;28;20379;-79
2022/10/28 03:42:51;;;;;;;9.97;3.53;;;8.80;99.90;;;;;;5035712;28;20047;-79
2022/10/28 03:45:17;;;;;;;7.90;3.27;;;8.80;99.90;;;;;;5035764;28;20029;-79
2022/10/28 03:47:43;;;;;;;8.63;3.27;;;8.80;99.90;;;;;;5036172;28;20109;-79
2022/10/28 03:50:09;;;;;;;6.60;2.73;;;8.80;99.90;;;;;;5035603;28;20048;-79
2022/10/28 03:52:34;;;;;;;14.37;2.67;;;8.80;99.90;;;;;;5035391;28;20486;-79
2022/10/28 03:55:00;;;;;;;5.43;2.70;;;8.80;99.90;;;;;;5035876;28;20036;-79
2022/10/28 03:57:29;;;;;;;9.23;3.10;;;8.80;99.90;;;;;;5034096;28;20367;-79
2022/10/28 03:59:55;;;;;;;11.10;2.87;;;8.80;99.90;;;;;;5034161;28;20030;-79
2022/10/28 04:02:21;;;;;;;7.60;3.87;;;8.70;99.90;;;;;;5035413;28;20108;-79
2022/10/28 04:04:46;;;;;;;8.87;2.53;;;8.80;99.90;;;;;;5035330;28;20025;-79
2022/10/28 04:07:12;;;;;;;8.97;3.63;;;8.70;99.90;;;;;;5035808;28;20361;-79
2022/10/28 04:09:37;;;;;;;9.20;2.87;;;8.70;99.90;;;;;;5035261;28;20029;-79
2022/10/28 04:12:04;;;;;;;6.53;2.97;;;8.80;99.90;;;;;;5035246;28;20029;-79
2022/10/28 04:14:29;;;;;;;6.30;3.00;;;8.70;99.90;;;;;;5054247;28;20021;-79
2022/10/28 04:16:55;;;;;;;9.70;3.30;;;8.70;99.90;;;;;;5055304;28;20082;-79
2022/10/28 04:19:21;;;;;;;8.43;3.13;;;8.70;99.90;;;;;;5055189;28;20389;-79
2022/10/28 04:21:46;;;;;;;8.33;2.90;;;8.70;99.90;;;;;;5055688;28;20151;-79
2022/10/28 04:24:12;;;;;;;8.80;2.63;;;8.70;99.90;;;;;;5054444;28;20021;-81
2022/10/28 04:26:37;;;;;;;8.53;2.70;;;8.70;99.90;;;;;;5034155;28;20465;-81
2022/10/28 04:29:03;;;;;;;6.70;2.57;;;8.70;99.90;;;;;;5035586;28;20027;-81
2022/10/28 04:31:28;;;;;;;14.17;2.73;;;8.70;99.90;;;;;;5035035;28;20036;-81
2022/10/28 04:33:54;;;;;;;5.23;2.47;;;8.70;99.90;;;;;;5035079;28;20061;-81
2022/10/28 04:36:19;;;;;;;10.77;3.10;;;8.70;99.90;;;;;;5034842;28;20033;-81
2022/10/28 04:38:45;;;;;;;9.87;3.20;;;8.70;99.90;;;;;;5035140;28;20030;-81
2022/10/28 04:41:13;;;;;;;11.10;2.93;;;8.60;99.90;;;;;;5034879;28;20060;-81
2022/10/28 04:43:39;;;;;;;7.63;3.37;;;8.60;99.90;;;;;;5035509;28;20029;-81
2022/10/28 04:46:04;;;;;;;10.27;3.80;;;8.50;99.90;;;;;;5034989;28;20103;-81
2022/10/28 04:48:31;;;;;;;7.80;3.50;;;8.60;99.90;;;;;;5034722;28;20026;-82
2022/10/28 04:50:57;;;;;;;11.47;3.40;;;8.50;99.90;;;;;;5034583;28;20069;-82
2022/10/28 04:53:23;;;;;;;9.20;3.10;;;8.50;99.90;;;;;;5033950;28;20418;-82
2022/10/28 04:55:48;;;;;;;7.47;3.00;;;8.50;99.90;;;;;;5048307;28;20490;-82
2022/10/28 04:58:14;;;;;;;11.20;3.23;;;8.50;99.90;;;;;;5054442;28;20104;-81
2022/10/28 05:00:40;;;;;;;13.17;3.17;;;8.40;99.90;;;;;;5054661;28;20124;-82
2022/10/28 05:03:05;;;;;;;6.53;3.00;;;8.40;99.90;;;;;;5054629;28;20021;-81
2022/10/28 05:05:31;;;;;;;8.77;3.00;;;8.40;99.90;;;;;;5054245;28;20029;-81
2022/10/28 05:07:57;;;;;;;6.03;2.90;;;8.40;99.90;;;;;;5054293;28;20021;-84
2022/10/28 05:10:23;;;;;;;9.43;4.20;;;8.40;99.90;;;;;;5034626;28;20026;-82
2022/10/28 05:12:48;;;;;;;11.43;4.70;;;8.40;99.90;;;;;;5034481;28;20029;-82
2022/10/28 05:15:14;;;;;;;8.80;4.50;;;8.40;99.90;;;;;;5032902;28;20378;-82
2022/10/28 05:17:43;;;;;;;16.77;3.67;;;8.40;99.90;;;;;;5034272;28;20032;-82
2022/10/28 05:20:09;;;;;;;11.73;4.17;;;8.40;99.90;;;;;;5039445;28;20092;-82
2022/10/28 05:22:35;;;;;;;11.03;3.70;;;8.30;99.90;;;;;;5054012;28;20021;-84
2022/10/28 05:25:00;;;;;;;13.77;5.00;;;8.30;99.90;;;;;;5053858;28;20503;-84
2022/10/28 05:27:26;;;;;;;12.13;4.63;;;8.30;99.90;;;;;;5053354;28;20033;-85
2022/10/28 05:29:51;;;;;;;11.07;5.40;;;8.30;99.90;;;;;;5053622;28;20095;-82
2022/10/28 05:32:17;;;;;;;21.93;12.60;;;8.30;99.90;;;;;;5053506;28;20083;-82
2022/10/28 05:34:43;;;;;;;15.17;8.67;;;8.30;99.90;;;;;;5053257;28;20492;-82
2022/10/28 05:37:08;;;;;;;20.77;6.40;;;8.30;99.90;;;;;;5052178;28;20021;-82
2022/10/28 05:39:34;;;;;;;9.40;5.43;;;8.30;99.90;;;;;;5053833;28;20073;-82
2022/10/28 05:41:59;;;;;;;16.60;6.20;;;8.20;99.90;;;;;;5053477;28;20045;-82
2022/10/28 05:44:25;;;;;;;14.37;5.47;;;8.30;99.90;;;;;;5053474;28;20470;-81
2022/10/28 05:46:50;;;;;;;11.13;6.00;;;8.20;99.90;;;;;;5053514;28;20108;-82
2022/10/28 05:49:19;;;;;;;12.70;5.07;;;8.30;99.90;;;;;;5053760;28;20029;-82
2022/10/28 05:51:45;;;;;;;11.70;5.10;;;8.30;99.90;;;;;;5053565;28;20037;-82
2022/10/28 05:54:11;;;;;;;16.23;5.07;;;8.20;99.90;;;;;;5053389;28;20035;-82
2022/10/28 05:56:37;;;;;;;9.50;4.37;;;8.20;99.90;;;;;;5053421;28;20025;-82
2022/10/28 05:59:03;;;;;;;9.13;4.37;;;8.20;99.90;;;;;;5054009;28;20026;-88
2022/10/28 06:01:28;;;;;;;10.67;5.23;;;8.20;99.90;;;;;;5053383;28;20017;-88
2022/10/28 06:03:54;;;;;;;11.03;5.00;;;8.20;99.90;;;;;;5052923;28;20040;-89
2022/10/28 06:06:20;;;;;;;12.97;4.97;;;8.30;99.90;;;;;;5052039;28;20033;-86
2022/10/28 06:08:45;;;;;;;10.07;5.00;;;8.30;99.90;;;;;;5051245;28;20529;-86
2022/10/28 06:11:11;;;;;;;9.60;5.20;;;8.30;99.90;;;;;;5051279;28;20048;-85
2022/10/28 06:13:36;;;;;;;14.93;6.00;;;8.30;99.90;;;;;;5053161;28;20025;-85
2022/10/28 06:16:02;;;;;;;18.83;5.80;;;8.40;99.90;;;;;;5051425;28;20033;-85
2022/10/28 06:18:28;;;;;;;13.37;5.40;;;8.40;99.90;;;;;;5050296;28;20025;-84
2022/10/28 06:20:57;;;;;;;14.57;6.10;;;8.40;99.90;;;;;;5050685;28;20021;-85
2022/10/28 06:23:25;;;;;;;14.73;5.70;;;8.50;99.90;;;;;;5047306;28;20028;-85
2022/10/28 06:25:51;;;;;;;13.17;6.40;;;8.50;99.90;;;;;;5065348;28;20029;-85
2022/10/28 06:28:16;;;;;;;15.40;6.10;;;8.60;99.90;;;;;;5039738;28;20125;-82
2022/10/28 06:30:42;;;;;;;12.40;5.50;;;8.60;99.90;;;;;;5039873;28;20021;-85
2022/10/28 06:33:08;;;;;;;14.57;5.20;;;8.60;99.90;;;;;;5051865;28;20084;-85
2022/10/28 06:35:38;;;;;;;11.13;4.97;;;8.70;99.90;;;;;;5051533;28;20059;-85
2022/10/28 06:38:04;;;;;;;19.10;5.73;;;8.70;99.90;;;;;;5049565;28;20466;-85
2022/10/28 06:40:29;;;;;;;13.93;5.30;;;8.80;99.90;;;;;;5044068;28;20022;-85
2022/10/28 06:43:03;;;;;;;12.87;4.63;;;8.80;99.90;;;;;;5041259;28;20031;-84
2022/10/28 06:45:30;;;;;;;16.23;5.43;;;8.80;99.90;;;;;;5044582;28;20100;-85
2022/10/28 06:47:57;;;;;;;12.43;5.60;;;8.90;99.90;;;;;;5047129;28;20025;-85
2022/10/28 06:50:23;;;;;;;14.37;5.30;;;8.90;99.90;;;;;;5053642;28;20043;-85
2022/10/28 06:52:49;;;;;;;10.50;4.47;;;8.90;99.90;;;;;;5049953;28;20029;-85
2022/10/28 06:55:14;;;;;;;8.00;4.33;;;9.00;99.90;;;;;;5034413;28;20426;-85
2022/10/28 06:57:40;;;;;;;14.03;4.97;;;9.00;99.90;;;;;;5040186;28;20211;-85
2022/10/28 07:00:06;;;;;;;15.70;5.00;;;9.00;99.90;;;;;;5053396;28;20390;-85
2022/10/28 07:02:32;;;;;;;11.83;4.60;;;9.10;99.90;;;;;;5052677;28;20139;-85
2022/10/28 07:04:57;;;;;;;11.23;4.53;;;9.20;99.90;;;;;;5054188;28;20053;-85
2022/10/28 07:07:23;;;;;;;13.23;4.40;;;9.20;99.90;;;;;;5052952;28;20033;-82
2022/10/28 07:09:49;;;;;;;16.10;4.33;;;9.30;99.90;;;;;;5056295;28;20021;-82
2022/10/28 07:12:14;;;;;;;12.63;4.20;;;9.40;99.90;;;;;;5055652;28;20029;-83
2022/10/28 07:14:40;;;;;;;10.87;4.77;;;9.40;99.90;;;;;;5056453;28;20032;-82
2022/10/28 07:17:05;;;;;;;12.53;4.43;;;9.50;99.90;;;;;;5056346;28;20147;-82
2022/10/28 07:19:31;;;;;;;10.40;4.63;;;9.60;99.90;;;;;;5056071;28;20025;-82
2022/10/28 07:21:57;;;;;;;11.77;4.33;;;9.70;99.90;;;;;;5056244;28;20051;-82
2022/10/28 07:24:22;;;;;;;10.60;4.07;;;9.80;99.90;;;;;;5056248;28;20074;-82
2022/10/28 07:26:48;;;;;;;9.73;4.00;;;9.90;99.90;;;;;;5056017;28;20103;-82
2022/10/28 07:29:15;;;;;;;7.63;3.60;;;10.00;99.90;;;;;;5056081;28;20029;-82
2022/10/28 07:31:40;;;;;;;10.77;3.57;;;10.20;99.90;;;;;;5056383;28;20025;-83
2022/10/28 07:34:06;;;;;;;13.07;3.57;;;10.30;99.90;;;;;;5055805;28;20040;-83
2022/10/28 07:36:31;;;;;;;9.70;3.75;;;10.50;99.90;;;;;;5056115;28;20067;-82
2022/10/28 07:38:57;;;;;;;15.13;3.50;;;10.70;99.90;;;;;;5054417;28;20025;-82
2022/10/28 07:41:24;;;;;;;8.05;3.63;;;10.90;99.90;;;;;;5054551;28;20025;-82
2022/10/28 07:43:49;;;;;;;6.53;2.97;;;11.20;99.90;;;;;;5056062;28;20377;-83
2022/10/28 07:46:18;;;;;;;11.73;3.42;;;11.50;99.90;;;;;;5054511;28;20036;-81
2022/10/28 07:48:44;;;;;;;5.43;3.25;;;11.80;99.90;;;;;;5055541;28;20087;-83
2022/10/28 07:51:12;;;;;;;7.40;3.40;;;12.10;99.90;;;;;;5055657;28;20124;-83
2022/10/28 07:53:38;;;;;;;7.97;2.95;;;12.30;99.90;;;;;;5055929;28;20377;-82
2022/10/28 07:56:18;;;;;;;6.95;3.10;;;12.60;99.90;;;;;;5055673;28;20039;-82
2022/10/28 07:58:44;;;;;;;6.25;3.33;;;12.90;99.90;;;;;;5055999;28;20021;-83
2022/10/28 08:01:12;;;;;;;5.53;2.45;;;13.20;99.90;;;;;;5055683;28;20024;-83
2022/10/28 08:03:40;;;;;;;21.55;5.72;;;13.60;99.90;;;;;;5055664;28;20071;-82
2022/10/28 08:06:14;;;;;;;21.13;4.97;;;13.80;99.90;;;;;;5055351;28;20092;-83
2022/10/28 08:08:40;;;;;;;9.13;3.33;;;14.10;99.90;;;;;;5055643;28;20045;-82
2022/10/28 08:11:11;;;;;;;8.07;2.90;;;14.30;99.90;;;;;;5056108;28;20029;-83
2022/10/28 08:13:37;;;;;;;8.32;3.53;;;14.50;99.90;;;;;;5055916;28;20035;-86
2022/10/28 08:16:02;;;;;;;9.07;2.85;;;14.60;99.90;;;;;;5055358;28;20029;-86
2022/10/28 08:18:28;;;;;;;9.65;3.00;;;14.70;99.90;;;;;;5050739;28;20021;-86
2022/10/28 08:20:53;;;;;;;19.00;4.60;;;14.80;99.90;;;;;;5042454;28;20028;-86
2022/10/28 08:23:19;;;;;;;13.93;5.03;;;14.80;99.90;;;;;;5052740;28;20029;-86
2022/10/28 08:25:49;;;;;;;10.70;3.28;;;14.80;99.90;;;;;;5053436;28;20256;-86
2022/10/28 08:28:17;;;;;;;10.82;3.30;;;14.90;99.90;;;;;;5053029;28;20092;-86
2022/10/28 08:30:44;;;;;;;8.52;3.45;;;15.00;99.90;;;;;;5051358;28;20104;-86
2022/10/28 08:33:09;;;;;;;9.45;3.30;;;15.10;99.90;;;;;;5048078;28;20021;-86
2022/10/28 08:35:35;;;;;;;5.43;2.60;;;15.10;99.90;;;;;;5049740;28;20051;-86
2022/10/28 08:38:02;;;;;;;10.88;3.10;;;15.20;99.90;;;;;;5053029;28;20131;-86
2022/10/28 08:40:59;;;;;;;9.07;2.63;;;15.30;99.90;;;;;;5048229;28;20026;-86
2022/10/28 08:43:58;;;;;;;12.02;3.03;;;15.40;99.90;;;;;;5039761;28;20112;-86
2022/10/28 08:46:47;;;;;;;9.05;3.13;;;15.50;99.90;;;;;;5035078;28;20025;-86
2022/10/28 08:49:16;;;;;;;12.07;3.28;;;15.50;99.90;;;;;;5037932;28;20021;-86
2022/10/28 08:51:57;;;;;;;10.27;3.70;;;15.60;99.90;;;;;;5036204;28;20121;-86
2022/10/28 08:54:39;;;;;;;14.18;3.72;;;15.60;99.90;;;;;;5046157;28;20482;-89
2022/10/28 08:57:09;;;;;;;15.73;3.88;;;15.70;99.90;;;;;;5053506;28;20350;-89
2022/10/28 08:59:39;;;;;;;15.75;4.93;;;15.70;99.90;;;;;;5053836;28;20420;-90
2022/10/28 09:02:10;;;;;;;13.50;4.20;;;15.70;99.90;;;;;;5053795;28;20036;-89
2022/10/28 09:04:42;;;;;;;15.00;3.85;;;15.70;99.90;;;;;;5037345;28;20029;-90
2022/10/28 09:07:25;;;;;;;15.65;3.60;;;15.70;99.90;;;;;;5040697;28;20029;-89
2022/10/28 09:09:52;;;;;;;22.17;4.10;;;15.80;99.90;;;;;;5042588;28;20044;-89
2022/10/28 09:12:39;;;;;;;14.75;3.72;;;15.90;99.90;;;;;;5054031;28;20424;-89
2022/10/28 09:15:33;;;;;;;24.33;4.05;;;15.90;99.90;;;;;;5050942;28;20105;-89
2022/10/28 09:18:19;;;;;;;20.13;4.55;;;15.90;99.90;;;;;;5041487;28;20033;-90
2022/10/28 09:20:56;;;;;;;16.70;3.97;;;16.00;99.90;;;;;;5032574;28;20033;-89
2022/10/28 09:23:57;;;;;;;14.63;3.58;;;16.10;99.90;;;;;;5035685;28;20029;-89
2022/10/28 09:26:32;;;;;;;13.25;3.92;;;16.20;99.90;;;;;;5033517;28;20446;-90
2022/10/28 09:29:25;;;;;;;17.25;4.47;;;16.40;99.90;;;;;;5034004;28;20113;-89
2022/10/28 09:32:19;;;;;;;19.40;3.63;;;16.50;99.90;;;;;;5045681;28;20363;-89
2022/10/28 09:34:57;;;;;;;17.83;3.58;;;16.70;99.90;;;;;;5026284;28;20125;-89
2022/10/28 09:37:31;;;;;;;13.45;3.75;;;17.00;99.90;;;;;;5033949;28;20022;-89
2022/10/28 09:40:06;;;;;;;10.38;3.17;;;17.20;99.90;;;;;;5035500;28;20017;-89
2022/10/28 09:42:37;;;;;;;;;;;17.50;99.90;;;;;;5054877;28;20098;-89
2022/10/28 09:45:19;;;;;;;7.57;2.65;;;17.80;99.90;;;;;;5053916;28;19911;-89
2022/10/28 09:48:12;;;;;;;10.90;2.53;;;18.00;99.90;;;;;;5053746;28;20067;-89
2022/10/28 09:50:37;;;;;;;15.52;3.53;;;18.20;99.90;;;;;;5041937;28;20068;-89
2022/10/28 09:53:17;;;;;;;8.52;2.03;;;18.40;99.90;;;;;;5041239;28;20426;-90
2022/10/28 09:55:43;;;;;;;11.43;2.10;;;18.70;99.90;;;;;;5050529;28;20029;-89
2022/10/28 09:58:11;;;;;;;11.20;2.20;;;18.90;99.90;;;;;;5050524;28;20029;-90
2022/10/28 10:00:37;;;;;;;8.05;1.92;;;19.10;99.90;;;;;;5052153;28;20025;-90
2022/10/28 10:03:03;;;;;;;12.93;2.42;;;19.30;99.90;;;;;;5034329;28;20025;-93
2022/10/28 10:05:32;;;;;;;9.75;2.35;;;19.60;99.90;;;;;;5031724;28;20056;-87
2022/10/28 10:08:02;;;;;;;10.10;2.80;;;19.90;99.90;;;;;;5032133;28;20021;-87
2022/10/28 10:10:43;;;;;;;10.30;2.00;;;20.20;99.90;;;;;;5031917;28;20563;-87
2022/10/28 10:13:12;;;;;;;13.35;2.17;;;20.40;99.90;;;;;;5034849;28;20485;-87
2022/10/28 10:15:44;;;;;;;11.50;1.98;;;20.60;99.90;;;;;;5034781;28;20022;-87
2022/10/28 10:18:33;;;;;;;7.47;1.63;;;20.70;99.90;;;;;;5032878;28;20075;-87
2022/10/28 10:21:00;;;;;;;5.68;1.45;;;20.80;99.90;;;;;;5033744;28;20036;-87
2022/10/28 10:23:32;;;;;;;8.15;1.95;;;20.90;99.90;;;;;;5052177;28;20033;-87
2022/10/28 10:26:07;;;;;;;3.25;1.20;;;21.10;99.90;;;;;;5051472;28;20036;-87
2022/10/28 10:28:37;;;;;;;6.68;1.70;;;21.10;99.90;;;;;;5033494;28;20072;-87
2022/10/28 10:31:06;;;;;;;5.28;1.67;;;21.10;99.90;;;;;;5033610;28;20406;-87
2022/10/28 10:33:38;;;;;;;7.65;1.40;;;21.10;99.90;;;;;;5051563;28;20063;-87
2022/10/28 10:36:09;;;;;;;4.68;1.30;;;21.10;99.90;;;;;;5051681;28;20056;-87
2022/10/28 10:38:36;;;;;;;6.28;1.15;;;21.10;99.90;;;;;;5051618;28;20021;-87
2022/10/28 10:41:03;;;;;;;7.95;1.33;;;21.20;99.90;;;;;;5048164;28;20038;-87
2022/10/28 10:43:35;;;;;;;6.43;1.50;;;21.20;99.90;;;;;;5047283;28;20021;-87
2022/10/28 10:46:04;;;;;;;4.63;1.30;;;21.10;99.90;;;;;;5052455;28;20036;-87
2022/10/28 10:48:33;;;;;;;4.82;1.45;;;21.20;99.90;;;;;;5051858;28;20029;-87
2022/10/28 10:51:23;;;;;;;4.97;1.25;;;21.10;99.90;;;;;;5044239;28;20076;-87
2022/10/28 10:53:59;;;;;;;4.68;1.65;;;21.10;99.90;;;;;;5045323;28;20055;-87
2022/10/28 10:56:32;;;;;;;8.18;1.50;;;21.10;99.90;;;;;;5051422;28;20513;-87
2022/10/28 10:59:04;;;;;;;4.88;1.55;;;21.10;99.90;;;;;;5032633;28;20465;-87
2022/10/28 11:01:37;;;;;;;5.03;1.67;;;21.10;99.90;;;;;;5033896;28;20079;-87
2022/10/28 11:04:14;;;;;;;5.45;1.38;;;21.20;99.90;;;;;;5033603;28;20022;-86
2022/10/28 11:06:42;;;;;;;3.47;1.38;;;21.20;99.90;;;;;;5032110;28;20025;-86
2022/10/28 11:09:29;;;;;;;5.10;1.50;;;21.40;99.90;;;;;;5033437;28;20029;-84
2022/10/28 11:11:58;;;;;;;4.57;1.20;;;21.70;99.90;;;;;;5033343;28;20052;-84
2022/10/28 11:14:31;;;;;;;4.82;1.60;;;21.80;99.90;;;;;;5033095;28;20030;-84
2022/10/28 11:17:00;;;;;;;2.78;1.17;;;22.00;99.90;;;;;;5032770;28;20049;-84
2022/10/28 11:19:30;;;;;;;4.07;1.27;;;22.20;99.90;;;;;;5032669;28;20021;-84
2022/10/28 11:22:01;;;;;;;5.13;1.20;;;22.40;99.90;;;;;;5033061;28;20029;-84
2022/10/28 11:24:38;;;;;;;5.18;1.40;;;22.60;99.90;;;;;;5034300;28;20097;-84
2022/10/28 11:27:40;;;;;;;7.53;1.27;;;22.80;99.90;;;;;;5042542;28;20044;-84
2022/10/28 11:30:15;;;;;;;4.55;1.25;;;22.80;99.90;;;;;;5036550;28;20017;-83
2022/10/28 11:32:56;;;;;;;;;;;22.90;99.90;;;;;;5036571;28;20112;-84
2022/10/28 11:36:03;;;;;;;7.05;2.08;;;23.00;99.90;;;;;;5038902;28;19916;-84
2022/10/28 11:38:50;;;;;;;4.25;1.55;;;23.20;99.90;;;;;;5057096;28;20051;-84
2022/10/28 11:41:36;;;;;;;6.38;1.40;;;23.50;99.90;;;;;;5056312;28;20025;-84
2022/10/28 11:44:07;;;;;;;9.48;1.88;;;23.80;99.90;;;;;;5055829;28;20074;-84
2022/10/28 11:46:47;;;;;;;4.13;1.20;;;23.90;99.90;;;;;;5055655;28;20059;-84
2022/10/28 11:49:57;;;;;;;5.22;1.40;;;24.20;99.90;;;;;;5051843;28;20374;-79
2022/10/28 11:52:50;;;;;;;7.47;1.80;;;24.50;99.90;;;;;;4996755;28;20077;-79
2022/10/28 11:55:34;;;;;;;4.97;2.20;;;24.70;99.90;;;;;;5048117;28;20048;-78
2022/10/28 11:58:34;;;;;;;7.88;2.13;;;24.90;99.90;;;;;;5044467;28;20037;-79
2022/10/28 12:01:22;;;;;;;6.82;1.90;;;25.00;99.90;;;;;;5046168;28;20029;-79
2022/10/28 12:04:24;;;;;;;7.10;2.13;;;25.10;99.90;;;;;;5045491;28;20441;-79
2022/10/28 12:07:01;;;;;;;6.05;1.80;;;25.10;99.90;;;;;;5037523;28;20116;-79
2022/10/28 12:09:45;;;;;;;6.82;1.75;;;25.10;99.90;;;;;;5045233;28;20039;-79
2022/10/28 12:12:25;;;;;;;4.55;1.58;;;25.10;99.90;;;;;;5046322;28;20478;-79
2022/10/28 12:15:32;;;;;;;11.80;2.38;;;24.90;99.90;;;;;;5046308;28;20128;-79
2022/10/28 12:17:58;;;;;;;12.07;2.33;;;24.80;99.90;;;;;;5044020;28;20101;-79
2022/10/28 12:20:40;;;;;;;5.95;2.08;;;24.80;99.90;;;;;;5046747;28;20039;-79
2022/10/28 12:23:15;;;;;;;7.07;2.17;;;24.40;99.90;;;;;;5046313;28;20029;-79
2022/10/28 12:25:45;;;;;;;8.10;1.90;;;24.20;99.90;;;;;;5046545;28;20044;-79
2022/10/28 12:28:32;;;;;;;8.60;2.70;;;24.40;99.90;;;;;;5042758;28;20037;-79
2022/10/28 12:30:58;;;;;;;7.90;2.50;;;24.40;99.90;;;;;;5045080;28;20037;-79
2022/10/28 12:33:45;;;;;;;12.63;2.22;;;24.30;99.90;;;;;;5045943;28;20017;-79
2022/10/28 12:36:23;;;;;;;6.40;1.95;;;24.30;99.90;;;;;;5042908;28;20722;-79
2022/10/28 12:39:00;;;;;;;7.43;1.90;;;24.30;99.90;;;;;;5043198;28;20033;-79
2022/10/28 12:41:42;;;;;;;10.20;2.42;;;24.30;99.90;;;;;;5044923;28;20130;-79
2022/10/28 12:44:14;;;;;;;7.75;2.50;;;24.40;99.90;;;;;;5044956;28;20098;-79
2022/10/28 12:46:56;;;;;;;4.40;2.33;;;24.40;99.90;;;;;;5044719;28;20036;-79
2022/10/28 12:49:24;;;;;;;8.40;2.05;;;24.20;99.90;;;;;;5057618;28;20035;-79
2022/10/28 12:51:50;;;;;;;8.40;2.42;;;24.10;99.90;;;;;;5043931;28;20049;-79
2022/10/28 12:54:27;;;;;;;4.13;2.00;;;24.00;99.90;;;;;;5046946;28;20021;-81
2022/10/28 12:57:11;;;;;;;8.52;1.98;;;23.90;99.90;;;;;;5045313;28;20037;-81
2022/10/28 13:00:07;;;;;;;12.45;2.22;;;23.60;99.90;;;;;;5044680;28;20097;-81
2022/10/28 13:02:40;;;;;;;9.55;2.25;;;23.40;99.90;;;;;;5050791;28;20040;-82
2022/10/28 13:05:14;;;;;;;6.65;2.33;;;23.20;99.90;;;;;;5053412;28;20044;-82
2022/10/28 13:07:58;;;;;;;;;;;23.10;99.90;;;;;;5053665;28;20025;-82
2022/10/28 13:10:31;;;;;;;9.13;3.00;;;23.00;99.90;;;;;;5050873;28;19905;-83
2022/10/28 13:13:09;;;;;;;10.05;2.85;;;23.00;99.90;;;;;;5053316;28;20096;-82